Time;durP1;ratioP1;P1;durP2;ratioP2;P2;SDS_P1;SDS_P2;PMS_P1;PMS_P2;Temp;Humidity;BMP_temperature;BMP_pressure;BME280_temperature;BME280_humidity;BME280_pressure;Samples;Min_cycle;Max_cycle;Signal;HPM_P1;HPM_P2
2021/03/26 00:02:04;;;;;;;56.42;29.60;;;;;;;5.23;90.07;101987.53;4995258;28;20054;-76
2021/03/26 00:04:30;;;;;;;51.30;28.20;;;;;;;5.10;89.13;101989.94;4995233;28;20042;-77
2021/03/26 00:06:55;;;;;;;50.90;28.48;;;;;;;5.09;88.89;101996.06;4974824;28;20058;-78
2021/03/26 00:09:25;;;;;;;55.30;29.80;;;;;;;5.06;89.79;101994.44;5013753;28;20519;-77
2021/03/26 00:11:53;;;;;;;55.35;30.17;;;;;;;5.05;89.63;101997.97;4980198;28;20619;-78
2021/03/26 00:14:19;;;;;;;60.33;31.52;;;;;;;5.03;90.31;101999.00;4994340;28;20038;-76
2021/03/26 00:16:45;;;;;;;57.63;31.02;;;;;;;4.97;90.16;101989.75;5013390;28;20057;-76
2021/03/26 00:19:11;;;;;;;54.38;30.13;;;;;;;4.92;90.06;101991.75;5015988;28;20131;-77
2021/03/26 00:21:36;;;;;;;51.28;27.27;;;;;;;4.82;89.72;101990.50;4988104;28;20135;-79
2021/03/26 00:24:03;;;;;;;52.03;28.00;;;;;;;4.84;89.51;101996.47;5008227;28;20053;-78
2021/03/26 00:26:38;;;;;;;54.40;29.95;;;;;;;4.78;89.65;101996.78;4992944;28;20080;-78
2021/03/26 00:29:11;;;;;;;63.35;31.08;;;;;;;4.86;90.61;101997.25;4993768;28;20070;-76
2021/03/26 00:31:39;;;;;;;60.70;30.65;;;;;;;4.84;90.92;101999.06;4975760;28;20062;-77
2021/03/26 00:34:05;;;;;;;60.92;32.70;;;;;;;4.84;90.78;101993.88;4975863;28;20077;-78
2021/03/26 00:36:31;;;;;;;58.88;32.80;;;;;;;4.91;91.08;102005.66;5008820;28;20460;-78
2021/03/26 00:38:58;;;;;;;64.28;32.72;;;;;;;4.87;91.36;101993.72;5008318;28;20041;-78
2021/03/26 00:41:24;;;;;;;58.85;31.52;;;;;;;4.81;91.09;102000.09;5005894;28;20045;-76
2021/03/26 00:43:50;;;;;;;63.10;32.90;;;;;;;4.75;90.86;102003.00;5002483;28;20054;-76
2021/03/26 00:46:15;;;;;;;56.92;30.35;;;;;;;4.68;90.52;102004.22;5005811;28;20052;-76
2021/03/26 00:48:41;;;;;;;68.53;33.83;;;;;;;4.64;91.09;102007.91;5003262;28;20695;-76
2021/03/26 00:51:07;;;;;;;65.53;33.88;;;;;;;4.59;90.91;102004.69;4991052;28;20053;-77
2021/03/26 00:53:35;;;;;;;66.20;34.28;;;;;;;4.60;91.50;102008.97;5011488;28;20557;-76
2021/03/26 00:56:05;;;;;;;74.78;35.75;;;;;;;4.58;92.04;102003.03;5007382;28;20057;-76
2021/03/26 00:58:32;;;;;;;71.55;36.00;;;;;;;4.54;91.72;102002.34;5006233;28;20037;-75
2021/03/26 01:00:58;;;;;;;67.90;36.97;;;;;;;4.56;92.64;102007.41;4989376;28;20038;-76
2021/03/26 01:03:27;;;;;;;73.93;37.55;;;;;;;4.60;92.43;102004.63;4994647;28;20520;-77
2021/03/26 01:06:01;;;;;;;68.28;35.78;;;;;;;4.59;92.09;102002.09;4998781;28;20045;-74
2021/03/26 01:08:26;;;;;;;70.78;37.08;;;;;;;4.53;92.39;101999.81;5016220;28;20046;-75
2021/03/26 01:11:04;;;;;;;77.45;37.17;;;;;;;4.54;92.72;101994.53;5013926;28;20140;-76
2021/03/26 01:13:30;;;;;;;73.57;36.50;;;;;;;4.55;92.35;101992.78;4995424;28;20042;-76
2021/03/26 01:15:56;;;;;;;65.78;35.67;;;;;;;4.53;92.27;101994.59;5024779;28;20049;-76
2021/03/26 01:18:27;;;;;;;75.40;36.85;;;;;;;4.47;92.11;101988.78;4983655;28;20121;-77
2021/03/26 01:20:55;;;;;;;76.85;37.15;;;;;;;4.42;92.56;101982.97;5007735;28;20049;-76
2021/03/26 01:23:21;;;;;;;78.25;39.05;;;;;;;4.81;92.98;101984.47;5014076;28;20073;-77
2021/03/26 01:25:48;;;;;;;71.93;37.35;;;;;;;4.95;92.11;101985.53;4999800;28;20081;-77
2021/03/26 01:28:33;;;;;;;73.82;36.80;;;;;;;4.87;91.92;101980.72;4994119;28;20566;-77
2021/03/26 01:31:19;;;;;;;71.40;35.63;;;;;;;4.86;91.47;101986.88;4991621;28;20099;-76
2021/03/26 01:33:45;;;;;;;72.97;36.38;;;;;;;4.79;91.32;101977.69;4993331;28;20049;-76
2021/03/26 01:36:13;;;;;;;72.25;37.25;;;;;;;4.73;91.83;101977.97;4997594;28;20045;-76
2021/03/26 01:38:39;;;;;;;75.53;38.40;;;;;;;4.87;91.82;101984.16;4999920;28;20041;-78
2021/03/26 01:41:27;;;;;;;79.18;36.95;;;;;;;4.87;91.66;101978.13;5021100;28;20117;-74
2021/03/26 01:43:53;;;;;;;69.43;37.38;;;;;;;4.83;92.07;101977.44;4984794;28;20488;-79
2021/03/26 01:46:20;;;;;;;72.95;37.67;;;;;;;4.94;92.05;101974.31;5005263;28;20096;-76
2021/03/26 01:48:54;;;;;;;71.28;36.78;;;;;;;4.95;92.10;101975.97;4985470;28;20074;-77
2021/03/26 01:51:26;;;;;;;75.53;38.30;;;;;;;4.94;92.23;101981.25;5006460;28;20042;-78
2021/03/26 01:53:52;;;;;;;78.03;38.77;;;;;;;4.85;91.76;101973.00;5016106;28;20121;-78
2021/03/26 01:56:17;;;;;;;79.80;38.30;;;;;;;4.80;92.14;101968.97;4999271;28;20137;-75
2021/03/26 01:59:04;;;;;;;75.85;38.00;;;;;;;4.67;92.18;101968.75;5010431;28;20046;-79
2021/03/26 02:01:43;;;;;;;76.75;37.65;;;;;;;4.62;92.38;101970.75;5011697;28;20041;-78
2021/03/26 02:04:20;;;;;;;76.95;36.92;;;;;;;4.52;92.81;101972.97;4997165;28;20136;-76
2021/03/26 02:06:49;;;;;;;76.57;38.40;;;;;;;4.55;93.05;101972.81;4993994;28;20423;-75
2021/03/26 02:09:18;;;;;;;72.75;36.58;;;;;;;4.44;92.77;101968.16;5011160;28;20345;-77
2021/03/26 02:11:52;;;;;;;67.20;36.22;;;;;;;4.51;92.89;101966.09;4992942;28;20141;-77
2021/03/26 02:14:22;;;;;;;78.45;39.17;;;;;;;4.47;92.75;101967.16;4976827;28;20046;-76
2021/03/26 02:16:50;;;;;;;78.78;38.20;;;;;;;4.37;93.46;101958.13;4994263;28;20045;-78
2021/03/26 02:19:54;;;;;;;75.57;37.78;;;;;;;4.34;93.29;101968.69;5006922;28;20413;-78
2021/03/26 02:22:23;;;;;;;72.85;36.67;;;;;;;4.21;93.10;101961.50;4955888;28;20516;-75
2021/03/26 02:24:51;;;;;;;84.90;37.65;;;;;;;4.22;93.45;101964.94;5010332;28;20102;-77
2021/03/26 02:27:18;;;;;;;80.75;38.45;;;;;;;4.15;92.97;101958.38;5024516;28;20041;-76
2021/03/26 02:29:44;;;;;;;78.55;37.33;;;;;;;4.16;94.00;101960.88;5004276;28;20046;-76
2021/03/26 02:32:24;;;;;;;81.90;38.95;;;;;;;4.17;93.43;101965.16;4991853;28;20048;-76
2021/03/26 02:35:21;;;;;;;91.55;39.78;;;;;;;4.25;94.09;101972.56;4990301;28;20046;-77
2021/03/26 02:37:57;;;;;;;81.00;39.70;;;;;;;4.22;93.97;101970.97;5014267;28;20057;-74
2021/03/26 02:40:36;;;;;;;85.40;41.97;;;;;;;4.26;94.15;101975.09;4999380;28;20128;-74
2021/03/26 02:43:16;;;;;;;88.88;40.13;;;;;;;4.23;94.04;101966.63;4994130;28;20060;-78
2021/03/26 02:45:49;;;;;;;78.18;39.60;;;;;;;4.19;94.21;101971.13;4991706;28;20087;-75
2021/03/26 02:48:25;;;;;;;82.15;40.80;;;;;;;4.16;94.25;101962.63;4972007;28;20470;-78
2021/03/26 02:50:59;;;;;;;88.40;40.47;;;;;;;4.14;94.45;101967.06;5017788;28;20041;-76
2021/03/26 02:54:10;;;;;;;83.47;40.22;;;;;;;4.07;95.20;101972.56;5013883;28;20041;-79
2021/03/26 02:56:47;;;;;;;90.18;41.38;;;;;;;4.02;94.69;101964.16;4991245;28;20096;-74
2021/03/26 02:59:49;;;;;;;96.45;44.55;;;;;;;3.92;95.64;101960.34;5009997;28;20046;-77
2021/03/26 03:02:22;;;;;;;99.38;44.20;;;;;;;3.90;95.54;101963.00;4955583;28;20042;-76
2021/03/26 03:05:22;;;;;;;100.60;44.28;;;;;;;3.89;95.95;101963.91;5002337;28;20128;-78
2021/03/26 03:07:53;;;;;;;96.82;45.25;;;;;;;3.88;95.91;101956.19;4977159;28;20057;-75
2021/03/26 03:10:32;;;;;;;92.25;42.40;;;;;;;3.86;95.76;101953.69;5007710;28;20618;-77
2021/03/26 03:13:22;;;;;;;93.32;43.35;;;;;;;3.84;95.55;101960.69;5009775;28;20065;-76
2021/03/26 03:16:01;;;;;;;94.22;43.15;;;;;;;3.79;95.35;101964.44;5010869;28;20401;-76
2021/03/26 03:18:30;;;;;;;99.40;43.72;;;;;;;3.76;95.95;101964.56;4990502;28;20195;-77
2021/03/26 03:21:26;;;;;;;99.93;45.10;;;;;;;3.75;96.01;101962.88;4977060;28;20125;-77
2021/03/26 03:24:20;;;;;;;99.90;44.92;;;;;;;3.77;96.18;101968.81;5006830;28;20156;-77
2021/03/26 03:26:55;;;;;;;104.03;45.65;;;;;;;3.63;96.56;101959.09;5004419;28;20058;-77
2021/03/26 03:29:41;;;;;;;101.82;45.05;;;;;;;3.68;96.89;101967.53;4990294;28;20423;-76
2021/03/26 03:33:08;;;;;;;100.53;46.38;;;;;;;3.79;96.67;101969.63;4997279;28;20116;-77
2021/03/26 03:35:51;;;;;;;106.28;46.60;;;;;;;3.81;96.67;101965.19;5008476;28;20049;-75
2021/03/26 03:38:53;;;;;;;113.28;49.95;;;;;;;3.81;96.44;101960.00;5009600;28;20497;-76
2021/03/26 03:41:28;;;;;;;109.35;47.22;;;;;;;3.76;96.66;101956.78;5006591;28;20041;-76
2021/03/26 03:44:12;;;;;;;110.22;46.88;;;;;;;3.69;97.09;101956.22;5013674;28;20049;-76
2021/03/26 03:47:15;;;;;;;101.88;46.47;;;;;;;3.65;96.70;101950.31;5011164;28;20042;-77
2021/03/26 03:50:09;;;;;;;108.40;47.53;;;;;;;3.70;97.09;101950.94;4992311;28;20119;-74
2021/03/26 03:52:57;;;;;;;110.95;48.30;;;;;;;3.68;97.01;101947.59;5009942;28;20061;-76
2021/03/26 03:55:34;;;;;;;105.82;45.80;;;;;;;3.62;97.07;101947.06;4985936;28;20041;-76
2021/03/26 03:58:20;;;;;;;107.55;45.83;;;;;;;3.57;97.12;101952.44;5010055;28;20038;-78
2021/03/26 04:01:15;;;;;;;106.47;46.15;;;;;;;3.49;97.15;101950.22;4975584;28;20114;-77
2021/03/26 04:03:52;;;;;;;108.13;47.47;;;;;;;3.36;96.74;101949.09;5013345;28;20165;-76
2021/03/26 04:06:35;;;;;;;103.38;45.22;;;;;;;3.23;97.01;101946.22;5012987;28;20147;-75
2021/03/26 04:09:11;;;;;;;99.28;42.80;;;;;;;3.14;97.01;101940.59;4995659;28;20050;-76
2021/03/26 04:11:36;;;;;;;;;;;;;;;3.03;96.95;101941.94;4995750;28;20049;-77
2021/03/26 04:14:23;;;;;;;84.63;39.22;;;;;;;2.93;96.16;101956.19;4994113;28;20362;-77
2021/03/26 04:17:13;;;;;;;86.60;38.75;;;;;;;2.85;96.62;101955.69;5008621;28;20076;-79
2021/03/26 04:19:45;;;;;;;84.00;40.20;;;;;;;2.77;95.71;101945.66;5009747;28;20046;-76
2021/03/26 04:22:25;;;;;;;81.37;39.00;;;;;;;2.70;95.83;101944.25;4992969;28;20077;-78
2021/03/26 04:25:09;;;;;;;82.28;39.83;;;;;;;2.67;95.65;101949.56;4985947;28;20332;-75
2021/03/26 04:27:38;;;;;;;80.80;38.08;;;;;;;2.62;95.73;101947.16;5012772;28;20144;-77
2021/03/26 04:30:24;;;;;;;89.35;39.20;;;;;;;2.61;95.51;101942.88;4998830;28;20044;-75
2021/03/26 04:32:58;;;;;;;85.90;40.47;;;;;;;2.63;96.00;101943.66;5009141;28;20046;-78
2021/03/26 04:35:26;;;;;;;88.72;40.50;;;;;;;2.60;96.25;101946.41;4995439;28;20048;-78
2021/03/26 04:38:07;;;;;;;76.90;37.50;;;;;;;2.54;95.76;101944.03;5013146;28;20142;-76
2021/03/26 04:40:35;;;;;;;83.78;39.83;;;;;;;2.51;95.43;101937.25;4995406;28;20104;-75
2021/03/26 04:43:46;;;;;;;79.03;39.65;;;;;;;2.47;95.29;101938.31;5011870;28;20037;-76
2021/03/26 04:46:27;;;;;;;83.80;39.13;;;;;;;2.52;95.84;101936.38;4934999;28;20054;-73
2021/03/26 04:49:16;;;;;;;83.35;39.45;;;;;;;2.47;95.78;101927.94;4947577;28;20067;-76
2021/03/26 04:52:11;;;;;;;94.82;42.25;;;;;;;2.60;96.31;101933.44;4992191;28;20152;-76
2021/03/26 04:55:22;;;;;;;96.38;40.70;;;;;;;2.61;96.41;101934.28;5013343;28;20130;-77
2021/03/26 04:58:00;;;;;;;90.15;41.00;;;;;;;2.59;96.49;101936.09;5016538;28;20113;-78
2021/03/26 05:00:48;;;;;;;96.55;42.35;;;;;;;2.61;96.79;101935.09;5002963;28;20100;-77
2021/03/26 05:03:25;;;;;;;107.22;44.40;;;;;;;2.71;96.90;101936.41;5018050;28;20065;-74
2021/03/26 05:05:59;;;;;;;108.28;46.13;;;;;;;2.71;97.30;101931.22;5006361;28;20463;-76
2021/03/26 05:08:32;;;;;;;117.13;47.60;;;;;;;2.90;97.25;101930.41;4995905;28;20065;-80
2021/03/26 05:11:20;;;;;;;124.60;49.58;;;;;;;3.03;97.73;101930.72;5009176;28;20615;-75
2021/03/26 05:13:54;;;;;;;124.15;48.95;;;;;;;3.11;97.93;101928.63;4993986;28;20042;-75
2021/03/26 05:16:53;;;;;;;120.93;47.13;;;;;;;3.21;98.17;101929.88;5011070;28;20472;-76
2021/03/26 05:20:01;;;;;;;115.45;47.63;;;;;;;3.30;98.02;101924.28;5003396;28;20054;-75
2021/03/26 05:22:47;;;;;;;129.93;49.10;;;;;;;3.39;97.90;101916.97;4987021;28;20050;-76
2021/03/26 05:25:41;;;;;;;119.95;48.60;;;;;;;3.48;98.06;101922.59;4995371;28;20046;-76
2021/03/26 05:28:27;;;;;;;120.88;48.53;;;;;;;3.61;97.71;101919.41;5010563;28;20473;-76
2021/03/26 05:31:38;;;;;;;113.57;46.58;;;;;;;3.65;97.58;101926.97;5017048;28;20535;-74
2021/03/26 05:34:17;;;;;;;122.87;49.70;;;;;;;3.69;97.64;101922.47;5009375;28;20142;-75
2021/03/26 05:37:07;;;;;;;114.72;48.67;;;;;;;3.73;97.97;101923.16;4996381;28;20327;-75
2021/03/26 05:40:20;;;;;;;112.07;46.72;;;;;;;3.75;97.64;101931.72;5006858;28;20115;-76
2021/03/26 05:43:09;;;;;;;110.38;46.03;;;;;;;3.77;97.20;101927.28;5019199;28;20069;-75
2021/03/26 05:46:13;;;;;;;107.55;46.63;;;;;;;3.70;96.90;101922.41;5009699;28;20039;-75
2021/03/26 05:49:26;;;;;;;102.80;45.60;;;;;;;3.67;96.86;101919.13;4997975;28;20041;-76
2021/03/26 05:51:54;;;;;;;104.10;45.83;;;;;;;3.64;96.65;101917.50;5000081;28;20046;-75
2021/03/26 05:54:34;;;;;;;106.38;45.83;;;;;;;3.57;96.51;101916.13;5012563;28;20048;-74
2021/03/26 05:57:32;;;;;;;97.53;43.85;;;;;;;3.47;96.53;101920.06;5005051;28;20225;-77
2021/03/26 06:00:22;;;;;;;92.18;40.53;;;;;;;3.42;96.56;101917.69;4987421;28;20057;-76
2021/03/26 06:03:36;;;;;;;91.70;40.03;;;;;;;3.33;96.61;101918.09;5006995;28;20180;-75
2021/03/26 06:06:43;;;;;;;85.65;40.63;;;;;;;3.30;96.63;101913.06;4978532;28;20460;-75
2021/03/26 06:10:07;;;;;;;100.65;43.47;;;;;;;3.35;96.84;101911.09;5003324;28;20180;-75
2021/03/26 06:12:55;;;;;;;91.97;42.13;;;;;;;3.37;97.01;101916.22;4963259;28;20073;-76
2021/03/26 06:16:07;;;;;;;108.47;45.20;;;;;;;3.38;97.16;101910.13;5009931;28;20041;-77
2021/03/26 06:19:29;;;;;;;101.40;44.22;;;;;;;3.47;97.56;101912.28;5006972;28;20430;-77
2021/03/26 06:22:47;;;;;;;108.38;45.92;;;;;;;3.55;96.99;101917.94;4991688;28;20084;-78
2021/03/26 06:25:54;;;;;;;110.28;46.13;;;;;;;3.68;97.00;101919.03;5005211;28;20073;-76
2021/03/26 06:28:34;;;;;;;105.80;45.97;;;;;;;3.80;96.92;101922.81;5007220;28;20050;-76
2021/03/26 06:31:30;;;;;;;109.65;47.63;;;;;;;3.94;97.07;101913.50;5014084;28;20038;-75
2021/03/26 06:34:53;;;;;;;110.95;46.50;;;;;;;4.15;96.55;101916.81;5007192;28;20064;-76
2021/03/26 06:37:37;;;;;;;101.60;45.65;;;;;;;4.27;95.74;101905.81;5010966;28;20762;-73
2021/03/26 06:40:40;;;;;;;97.15;43.92;;;;;;;4.36;95.40;101918.34;4988399;28;20164;-77
2021/03/26 06:43:22;;;;;;;;;;;;;;;4.46;95.72;101910.91;5008417;28;20141;-76
2021/03/26 06:46:00;;;;;;;98.85;42.60;;;;;;;4.61;94.85;101911.88;5009680;28;19921;-76
2021/03/26 06:48:51;;;;;;;100.78;44.30;;;;;;;4.70;94.05;101911.41;5011135;28;20083;-76
2021/03/26 06:51:36;;;;;;;96.25;45.30;;;;;;;4.83;93.93;101912.44;5006004;28;20092;-76
2021/03/26 06:54:22;;;;;;;90.50;44.83;;;;;;;4.98;93.74;101913.41;4986411;28;20046;-77
2021/03/26 06:57:14;;;;;;;91.78;44.97;;;;;;;5.15;93.90;101919.47;5008497;28;20731;-76
2021/03/26 06:59:43;;;;;;;93.28;44.72;;;;;;;5.31;93.32;101922.91;5003592;28;20044;-76
2021/03/26 07:02:44;;;;;;;88.15;43.13;;;;;;;5.40;92.92;101917.19;5017053;28;20037;-78
2021/03/26 07:05:13;;;;;;;94.40;45.50;;;;;;;5.59;92.45;101918.78;5020905;28;20128;-77
2021/03/26 07:07:49;;;;;;;85.88;44.30;;;;;;;5.74;92.02;101914.50;5013545;28;20077;-77
2021/03/26 07:10:31;;;;;;;91.05;45.47;;;;;;;5.82;91.39;101923.56;4993391;28;20050;-75
2021/03/26 07:13:15;;;;;;;88.25;45.03;;;;;;;5.98;91.23;101927.94;5007462;28;20058;-78
2021/03/26 07:16:01;;;;;;;86.13;45.83;;;;;;;6.17;90.51;101930.31;5016135;28;20045;-76
2021/03/26 07:18:52;;;;;;;84.68;43.50;;;;;;;6.25;90.43;101925.50;5004927;28;20060;-77
2021/03/26 07:21:30;;;;;;;101.18;47.90;;;;;;;6.38;90.45;101923.00;4990656;28;20095;-76
2021/03/26 07:24:32;;;;;;;88.55;45.38;;;;;;;6.55;90.79;101930.66;5006595;28;20058;-76
2021/03/26 07:27:22;;;;;;;87.95;45.17;;;;;;;6.74;90.09;101922.59;4992562;28;20049;-77
2021/03/26 07:30:01;;;;;;;78.22;43.90;;;;;;;6.89;89.81;101931.25;4997187;28;20053;-75
2021/03/26 07:33:11;;;;;;;86.97;43.67;;;;;;;7.06;89.71;101922.38;5009755;28;20057;-76
2021/03/26 07:35:54;;;;;;;88.70;45.15;;;;;;;7.20;89.33;101927.59;5005585;28;20053;-76
2021/03/26 07:38:58;;;;;;;84.18;45.78;;;;;;;7.32;89.11;101930.38;5009004;28;20070;-77
2021/03/26 07:41:46;;;;;;;88.50;47.47;;;;;;;7.49;88.85;101931.91;4992127;28;20041;-75
2021/03/26 07:44:29;;;;;;;83.20;45.55;;;;;;;7.62;87.80;101927.59;5008914;28;20729;-76
2021/03/26 07:47:27;;;;;;;86.57;46.53;;;;;;;7.81;88.01;101922.00;4976521;28;20092;-76
2021/03/26 07:50:01;;;;;;;81.70;45.72;;;;;;;7.91;87.12;101925.72;4991749;28;20127;-78
2021/03/26 07:52:48;;;;;;;81.00;45.15;;;;;;;8.12;86.68;101925.25;4989377;28;20037;-74
2021/03/26 07:55:27;;;;;;;82.85;46.92;;;;;;;8.16;85.85;101927.53;5010612;28;20046;-77
2021/03/26 07:58:36;;;;;;;82.45;45.95;;;;;;;8.34;86.75;101928.09;4995621;28;20066;-76
2021/03/26 08:01:06;;;;;;;76.15;44.20;;;;;;;8.36;85.11;101926.22;4993468;28;20053;-78
2021/03/26 08:04:02;;;;;;;79.00;46.13;;;;;;;8.44;84.48;101922.25;5008508;28;20505;-77
2021/03/26 08:06:49;;;;;;;75.35;44.05;;;;;;;8.64;83.82;101919.13;5013420;28;20120;-76
2021/03/26 08:09:30;;;;;;;73.28;42.55;;;;;;;8.74;82.59;101927.22;5027208;28;20136;-76
2021/03/26 08:12:02;;;;;;;74.90;44.10;;;;;;;8.86;83.60;101925.53;4990460;28;20520;-77
2021/03/26 08:14:55;;;;;;;78.10;44.45;;;;;;;9.06;83.27;101922.34;5014701;28;20044;-76
2021/03/26 08:17:41;;;;;;;74.72;43.10;;;;;;;9.13;82.04;101917.50;5008577;28;20037;-75
2021/03/26 08:20:29;;;;;;;73.32;42.80;;;;;;;9.20;81.94;101915.31;4990584;28;20450;-76
2021/03/26 08:23:28;;;;;;;70.43;43.53;;;;;;;9.31;81.06;101923.25;4991151;28;20091;-76
2021/03/26 08:26:12;;;;;;;74.60;42.95;;;;;;;9.35;82.07;101922.91;4989106;28;20068;-76
2021/03/26 08:29:16;;;;;;;71.88;42.35;;;;;;;9.65;80.66;101921.63;4980331;28;20054;-77
2021/03/26 08:31:59;;;;;;;72.30;43.10;;;;;;;9.90;79.88;101920.66;5010639;28;20061;-76
2021/03/26 08:34:33;;;;;;;71.78;42.70;;;;;;;10.21;78.21;101917.53;4994322;28;20148;-76
2021/03/26 08:37:17;;;;;;;69.35;40.28;;;;;;;10.41;78.94;101923.94;5011380;28;20510;-76
2021/03/26 08:39:48;;;;;;;61.92;36.97;;;;;;;10.41;76.55;101914.28;5008700;28;21654;-75
2021/03/26 08:42:29;;;;;;;65.57;37.17;;;;;;;10.45;75.86;101912.25;5010816;28;20511;-76
2021/03/26 08:45:01;;;;;;;60.05;36.90;;;;;;;10.58;76.30;101917.41;4993079;28;20045;-76
2021/03/26 08:47:42;;;;;;;55.78;36.60;;;;;;;10.78;74.47;101919.34;5009440;28;20123;-75
2021/03/26 08:50:23;;;;;;;56.80;35.05;;;;;;;10.70;74.14;101919.09;4978313;28;20041;-76
2021/03/26 08:53:00;;;;;;;57.45;34.80;;;;;;;10.67;74.44;101920.16;4993906;28;20516;-77
2021/03/26 08:55:40;;;;;;;53.58;33.80;;;;;;;10.70;74.72;101908.59;5015073;28;20058;-78
2021/03/26 08:58:40;;;;;;;51.70;30.65;;;;;;;10.81;73.46;101913.88;4998280;28;20052;-78
2021/03/26 09:01:30;;;;;;;50.50;31.85;;;;;;;11.03;73.23;101907.75;5015167;28;20054;-78
2021/03/26 09:04:27;;;;;;;48.33;29.08;;;;;;;11.08;70.18;101905.59;5020104;28;20054;-78
2021/03/26 09:07:14;;;;;;;46.95;28.45;;;;;;;11.16;69.78;101896.28;4994442;28;20053;-78
2021/03/26 09:09:58;;;;;;;46.63;27.60;;;;;;;11.22;70.29;101895.78;5002623;28;20046;-74
2021/03/26 09:12:33;;;;;;;44.92;28.30;;;;;;;11.37;68.85;101893.72;5019503;28;20049;-80
2021/03/26 09:15:15;;;;;;;39.33;26.38;;;;;;;11.53;69.32;101896.78;4998558;28;20178;-81
2021/03/26 09:17:53;;;;;;;41.53;26.67;;;;;;;11.64;67.00;101882.75;5009936;28;20045;-79
2021/03/26 09:20:25;;;;;;;41.92;23.60;;;;;;;11.75;66.36;101882.72;5003512;28;20654;-77
2021/03/26 09:23:32;;;;;;;35.08;23.20;;;;;;;11.79;66.42;101888.56;4996444;28;20062;-77
2021/03/26 09:26:09;;;;;;;30.95;19.35;;;;;;;11.94;64.81;101881.22;4976472;28;20152;-76
2021/03/26 09:28:40;;;;;;;32.28;20.38;;;;;;;12.03;63.71;101873.41;5011126;28;20607;-78
2021/03/26 09:31:11;;;;;;;30.70;18.92;;;;;;;11.95;63.15;101873.22;4993624;28;20079;-75
2021/03/26 09:33:53;;;;;;;35.50;20.25;;;;;;;12.04;63.39;101876.88;5009251;28;20057;-75
2021/03/26 09:36:23;;;;;;;25.85;16.10;;;;;;;12.20;61.62;101876.41;4986593;28;20037;-76
2021/03/26 09:39:02;;;;;;;25.55;16.25;;;;;;;12.13;61.49;101884.00;5007869;28;20048;-76
2021/03/26 09:41:52;;;;;;;30.95;17.88;;;;;;;12.30;61.63;101881.72;4962570;28;20046;-76
2021/03/26 09:44:29;;;;;;;26.98;15.38;;;;;;;12.33;59.35;101879.66;5006121;28;20133;-76
2021/03/26 09:47:11;;;;;;;23.23;14.45;;;;;;;12.50;58.43;101883.50;5007659;28;20137;-79
2021/03/26 09:50:12;;;;;;;24.20;15.23;;;;;;;12.39;59.05;101873.88;5009602;28;20052;-76
2021/03/26 09:52:40;;;;;;;22.15;15.15;;;;;;;12.37;59.32;101883.69;4952407;28;20255;-75
2021/03/26 09:55:17;;;;;;;22.35;13.82;;;;;;;12.61;57.53;101879.97;4989555;28;20044;-74
2021/03/26 09:57:51;;;;;;;19.52;12.50;;;;;;;12.64;57.43;101877.06;4992259;28;20037;-78
2021/03/26 10:00:50;;;;;;;21.95;12.75;;;;;;;12.77;56.85;101877.66;5008313;28;20038;-77
2021/03/26 10:03:47;;;;;;;22.70;13.15;;;;;;;12.51;55.09;101879.06;5007878;28;20715;-75
2021/03/26 10:06:24;;;;;;;20.95;13.00;;;;;;;12.51;56.16;101877.28;5009287;28;20046;-76
2021/03/26 10:11:50;;;;;;;23.77;13.68;;;;;;;12.65;56.12;101865.56;5009439;28;20045;-78
2021/03/26 10:14:17;;;;;;;;;;;;;;;12.65;56.18;101866.38;4991709;28;20049;-77
2021/03/26 10:16:59;;;;;;;20.70;12.25;;;;;;;12.65;55.01;101870.81;4994058;28;19921;-77
2021/03/26 10:19:50;;;;;;;23.60;13.32;;;;;;;12.84;55.01;101873.50;4976404;28;20046;-79
2021/03/26 10:22:30;;;;;;;21.38;13.07;;;;;;;12.77;55.46;101864.50;5015568;28;20037;-76
2021/03/26 10:25:03;;;;;;;23.88;14.80;;;;;;;12.77;56.81;101864.50;5011287;28;20503;-76
2021/03/26 10:27:41;;;;;;;23.65;14.43;;;;;;;12.94;55.68;101862.19;5009690;28;20037;-75
2021/03/26 10:30:22;;;;;;;22.02;13.98;;;;;;;13.20;55.64;101857.25;4992474;28;20045;-76
2021/03/26 10:32:49;;;;;;;23.42;12.77;;;;;;;13.36;53.64;101860.22;4991564;28;20652;-75
2021/03/26 10:35:25;;;;;;;21.35;13.18;;;;;;;13.34;53.66;101850.81;5012984;28;20053;-76
2021/03/26 10:38:02;;;;;;;20.85;13.20;;;;;;;13.40;54.10;101847.59;5017967;28;20125;-75
2021/03/26 10:40:45;;;;;;;19.02;11.95;;;;;;;13.72;54.23;101854.41;5016491;28;20050;-76
2021/03/26 10:43:43;;;;;;;17.95;11.35;;;;;;;13.85;50.49;101857.59;5004445;28;20049;-75
2021/03/26 10:46:42;;;;;;;18.40;11.38;;;;;;;13.89;49.77;101851.03;4973150;28;20050;-76
2021/03/26 10:49:21;;;;;;;16.85;10.95;;;;;;;13.99;50.05;101841.31;4990043;28;20068;-75
2021/03/26 10:51:52;;;;;;;19.17;10.73;;;;;;;14.11;51.59;101849.91;5004057;28;20115;-75
2021/03/26 10:54:25;;;;;;;17.52;10.88;;;;;;;13.98;51.67;101838.81;4992007;28;20045;-76
2021/03/26 10:57:09;;;;;;;18.10;11.40;;;;;;;14.15;50.34;101839.91;4987418;28;20045;-76
2021/03/26 10:59:57;;;;;;;17.58;10.88;;;;;;;14.39;50.27;101834.94;5015118;28;20056;-76
2021/03/26 11:02:43;;;;;;;19.10;11.55;;;;;;;14.56;48.37;101828.06;4985206;28;20046;-77
2021/03/26 11:05:14;;;;;;;16.55;10.95;;;;;;;14.15;49.29;101829.34;5009267;28;20116;-77
2021/03/26 11:07:48;;;;;;;16.85;11.57;;;;;;;13.89;50.89;101829.13;5015059;28;20045;-76
2021/03/26 11:10:21;;;;;;;15.23;10.43;;;;;;;13.93;50.77;101826.03;4996004;28;20045;-75
2021/03/26 11:12:53;;;;;;;17.35;11.85;;;;;;;13.88;50.95;101828.31;4995751;28;20041;-76
2021/03/26 11:15:35;;;;;;;17.83;11.52;;;;;;;14.06;51.86;101827.56;5017417;28;20602;-75
2021/03/26 11:18:12;;;;;;;21.30;11.73;;;;;;;14.15;49.45;101814.34;5005979;28;20096;-77
2021/03/26 11:20:48;;;;;;;19.08;10.75;;;;;;;13.77;50.62;101817.91;4991371;28;20042;-78
2021/03/26 11:23:29;;;;;;;15.63;10.00;;;;;;;13.93;49.81;101801.47;4990490;28;20050;-77
2021/03/26 11:25:57;;;;;;;17.48;10.90;;;;;;;13.84;50.04;101805.78;5022779;28;20049;-75
2021/03/26 11:28:46;;;;;;;18.55;11.82;;;;;;;13.79;50.55;101805.41;5007878;28;20053;-77
2021/03/26 11:31:23;;;;;;;17.67;11.57;;;;;;;13.93;50.09;101801.47;5004889;28;20077;-75
2021/03/26 11:33:58;;;;;;;20.88;11.00;;;;;;;13.87;51.19;101792.34;4987240;28;20060;-79
2021/03/26 11:36:52;;;;;;;14.82;10.15;;;;;;;13.58;49.79;101787.97;4982114;28;20128;-78
2021/03/26 11:39:42;;;;;;;18.73;11.00;;;;;;;13.49;50.07;101785.34;4979847;28;20110;-76
2021/03/26 11:42:08;;;;;;;15.48;10.52;;;;;;;13.29;50.81;101787.09;5006830;28;20052;-78
2021/03/26 11:44:38;;;;;;;16.13;10.13;;;;;;;13.36;51.85;101788.25;4975518;28;20124;-76
2021/03/26 11:47:25;;;;;;;15.63;10.52;;;;;;;13.69;51.99;101783.47;4985759;28;20077;-75
2021/03/26 11:49:59;;;;;;;16.35;9.98;;;;;;;13.87;49.38;101778.31;4988029;28;20508;-77
2021/03/26 11:52:27;;;;;;;14.82;9.60;;;;;;;13.99;49.46;101774.53;4999614;28;20095;-75
2021/03/26 11:55:08;;;;;;;15.20;9.45;;;;;;;14.24;49.52;101775.72;5003619;28;20133;-76
2021/03/26 11:57:51;;;;;;;15.77;9.32;;;;;;;14.44;48.91;101768.50;5003295;28;20324;-75
2021/03/26 12:00:29;;;;;;;15.32;9.65;;;;;;;14.50;48.42;101765.28;4973105;28;20050;-76
2021/03/26 12:03:02;;;;;;;15.02;9.75;;;;;;;14.54;47.98;101756.09;5007267;28;20044;-75
2021/03/26 12:06:01;;;;;;;16.02;9.18;;;;;;;14.93;46.85;101755.03;5014966;28;20045;-77
2021/03/26 12:08:41;;;;;;;12.23;8.45;;;;;;;15.13;45.84;101753.09;4997697;28;20411;-75
2021/03/26 12:11:17;;;;;;;10.77;7.90;;;;;;;15.59;45.11;101748.47;5011847;28;20511;-78
2021/03/26 12:13:56;;;;;;;13.02;8.30;;;;;;;15.83;43.33;101739.09;4994121;28;20113;-77
2021/03/26 12:16:25;;;;;;;12.40;8.80;;;;;;;15.53;45.37;101743.81;4993788;28;20041;-76
2021/03/26 12:18:59;;;;;;;14.00;9.25;;;;;;;15.41;43.31;101737.09;4991104;28;20058;-76
2021/03/26 12:21:34;;;;;;;11.35;8.63;;;;;;;14.99;44.41;101731.50;4975371;28;20093;-76
2021/03/26 12:24:12;;;;;;;14.70;9.40;;;;;;;14.77;46.17;101732.78;4999426;28;20046;-76